createdAt,value
2023-05-04T04:00:35.845Z,5.62
2023-05-04T04:01:36.814Z,5.62
2023-05-04T04:02:36.923Z,5.62
2023-05-04T04:03:36.861Z,5.62
2023-05-04T04:04:36.899Z,5.62
2023-05-04T04:05:36.792Z,5.62
2023-05-04T04:06:36.768Z,5.62
2023-05-04T04:07:36.769Z,5.62
2023-05-04T04:08:36.743Z,5.62
2023-05-04T04:09:36.742Z,5.62
2023-05-04T04:10:36.726Z,5.62
2023-05-04T04:11:36.708Z,5.62
2023-05-04T04:12:36.760Z,11.25
2023-05-04T04:13:36.703Z,11.25
2023-05-04T04:14:36.703Z,11.25
2023-05-04T04:15:36.667Z,11.25
2023-05-04T04:16:36.777Z,11.25
2023-05-04T04:17:36.712Z,11.25
2023-05-04T04:18:36.650Z,11.25
2023-05-04T04:19:36.636Z,11.25
2023-05-04T04:20:36.609Z,11.25
2023-05-04T04:21:36.624Z,11.25
2023-05-04T04:22:36.583Z,11.25
2023-05-04T04:23:36.609Z,11.25
2023-05-04T04:24:36.590Z,11.25
2023-05-04T04:25:36.582Z,11.25
2023-05-04T04:26:36.556Z,11.25
2023-05-04T04:27:36.550Z,11.25
2023-05-04T04:28:36.552Z,11.25
2023-05-04T04:29:36.547Z,11.25
2023-05-04T04:30:36.507Z,11.25
2023-05-04T04:31:36.520Z,11.25
2023-05-04T04:32:36.544Z,11.25
2023-05-04T04:33:36.480Z,11.25
2023-05-04T04:34:36.589Z,11.25
2023-05-04T04:35:36.460Z,16.88
2023-05-04T04:36:36.453Z,16.88
2023-05-04T04:37:36.456Z,16.88
2023-05-04T04:38:36.439Z,16.88
2023-05-04T04:39:36.470Z,16.88
2023-05-04T04:40:36.429Z,16.88
2023-05-04T04:41:36.387Z,16.88
2023-05-04T04:42:36.379Z,16.88
2023-05-04T04:43:36.418Z,16.88
2023-05-04T04:44:36.356Z,16.88
2023-05-04T04:45:36.370Z,16.88
2023-05-04T04:46:36.377Z,16.88
2023-05-04T04:47:36.375Z,16.88
2023-05-04T04:48:36.323Z,16.88
2023-05-04T04:49:36.324Z,16.88
2023-05-04T04:50:36.292Z,16.88
2023-05-04T04:51:36.292Z,16.88
2023-05-04T04:52:36.276Z,16.88
2023-05-04T04:53:36.306Z,16.88
2023-05-04T04:54:36.237Z,16.88
2023-05-04T04:55:36.246Z,16.88
2023-05-04T04:56:36.263Z,16.88
2023-05-04T04:57:36.243Z,16.88
2023-05-04T04:58:36.224Z,22.50
2023-05-04T04:59:36.194Z,22.50
2023-05-04T05:00:36.179Z,22.50
2023-05-04T05:01:36.202Z,22.50
2023-05-04T05:02:36.814Z,22.50
2023-05-04T05:03:36.173Z,22.50
2023-05-04T05:04:36.172Z,22.50
2023-05-04T05:05:36.135Z,22.50
2023-05-04T05:06:36.137Z,22.50
2023-05-04T05:07:36.117Z,22.50
2023-05-04T05:08:36.105Z,22.50
2023-05-04T05:09:36.252Z,22.50
2023-05-04T05:10:36.075Z,22.50
2023-05-04T05:11:36.087Z,22.50
2023-05-04T05:12:36.071Z,22.50
2023-05-04T05:13:36.052Z,22.50
2023-05-04T05:14:36.055Z,22.50
2023-05-04T05:15:36.065Z,22.50
2023-05-04T05:16:36.056Z,22.50
2023-05-04T05:17:36.025Z,22.50
2023-05-04T05:18:36.003Z,22.50
2023-05-04T05:19:35.990Z,22.50
2023-05-04T05:20:35.961Z,28.12
2023-05-04T05:21:35.972Z,28.12
2023-05-04T05:22:35.950Z,28.12
2023-05-04T05:23:35.970Z,28.12
2023-05-04T05:24:35.928Z,28.12
2023-05-04T05:25:35.915Z,28.12
2023-05-04T05:26:35.910Z,28.12
2023-05-04T05:27:35.902Z,28.12
2023-05-04T05:28:35.907Z,28.12
2023-05-04T05:29:35.898Z,28.12
2023-05-04T05:30:35.897Z,28.12
2023-05-04T05:31:35.853Z,28.12
2023-05-04T05:32:35.976Z,28.12
2023-05-04T05:33:35.832Z,28.12
2023-05-04T05:34:35.823Z,28.12
2023-05-04T05:35:35.819Z,28.12
2023-05-04T05:36:35.808Z,28.12
2023-05-04T05:37:35.790Z,28.12
2023-05-04T05:38:35.786Z,28.12
2023-05-04T05:39:35.798Z,28.12
2023-05-04T05:40:35.761Z,28.12
2023-05-04T05:41:35.762Z,33.75
2023-05-04T05:42:35.742Z,33.75
2023-05-04T05:43:35.718Z,33.75
2023-05-04T05:44:35.711Z,33.75
2023-05-04T05:45:35.753Z,33.75
2023-05-04T05:46:35.736Z,33.75
2023-05-04T05:47:35.736Z,33.75
2023-05-04T05:48:35.680Z,33.75
2023-05-04T05:49:35.680Z,33.75
2023-05-04T05:50:35.668Z,33.75
2023-05-04T05:51:35.674Z,33.75
2023-05-04T05:52:35.632Z,33.75
2023-05-04T05:53:35.656Z,33.75
2023-05-04T05:54:35.615Z,33.75
2023-05-04T05:55:35.611Z,33.75
2023-05-04T05:56:35.591Z,33.75
2023-05-04T05:57:35.607Z,33.75
2023-05-04T05:58:35.583Z,33.75
2023-05-04T05:59:35.566Z,33.75
2023-05-04T06:00:35.589Z,33.75
2023-05-04T06:01:35.532Z,33.75
2023-05-04T06:02:35.586Z,39.38
2023-05-04T06:03:35.642Z,39.38
2023-05-04T06:04:35.608Z,39.38
2023-05-04T06:05:35.506Z,39.38
2023-05-04T06:06:35.481Z,39.38
2023-05-04T06:07:35.468Z,39.38
2023-05-04T06:08:35.495Z,39.38
2023-05-04T06:09:35.438Z,39.38
2023-05-04T06:10:35.460Z,39.38
2023-05-04T06:11:35.441Z,39.38
2023-05-04T06:12:35.486Z,39.38
2023-05-04T06:13:35.397Z,39.38
2023-05-04T06:14:35.397Z,39.38
2023-05-04T06:15:35.394Z,39.38
2023-05-04T06:16:35.410Z,39.38
2023-05-04T06:17:35.417Z,39.38
2023-05-04T06:18:35.355Z,45.00
2023-05-04T06:19:35.328Z,45.00
2023-05-04T06:20:35.329Z,45.00
2023-05-04T06:21:35.333Z,45.00
2023-05-04T06:22:35.316Z,45.00
2023-05-04T06:23:35.302Z,45.00
2023-05-04T06:24:35.309Z,45.00
2023-05-04T06:25:35.553Z,45.00
2023-05-04T06:26:35.285Z,45.00
2023-05-04T06:27:35.270Z,45.00
2023-05-04T06:28:35.270Z,45.00
2023-05-04T06:29:35.229Z,45.00
2023-05-04T06:30:35.216Z,45.00
2023-05-04T06:31:35.224Z,45.00
2023-05-04T06:32:35.250Z,45.00
2023-05-04T06:33:35.474Z,50.62
2023-05-04T06:34:35.192Z,50.62
2023-05-04T06:35:35.147Z,50.62
2023-05-04T06:36:35.169Z,50.62
2023-05-04T06:37:35.153Z,50.62
2023-05-04T06:38:37.775Z,50.62
2023-05-04T06:39:35.122Z,50.62
2023-05-04T06:40:35.127Z,50.62
2023-05-04T06:41:35.089Z,50.62
2023-05-04T06:42:35.093Z,50.62
2023-05-04T06:43:35.074Z,50.62
2023-05-04T06:44:35.084Z,50.62
2023-05-04T06:45:35.067Z,50.62
2023-05-04T06:46:35.040Z,50.62
2023-05-04T06:47:35.077Z,50.62
2023-05-04T06:48:35.036Z,50.62
2023-05-04T06:49:35.012Z,56.25
2023-05-04T06:50:34.998Z,56.25
2023-05-04T06:51:34.986Z,56.25
2023-05-04T06:52:35.021Z,56.25
2023-05-04T06:53:34.963Z,56.25
2023-05-04T06:54:34.969Z,56.25
2023-05-04T06:55:34.946Z,56.25
2023-05-04T06:56:34.940Z,56.25
2023-05-04T06:57:34.932Z,56.25
2023-05-04T06:58:34.908Z,56.25
2023-05-04T06:59:34.908Z,56.25
2023-05-04T07:00:34.905Z,56.25
2023-05-04T07:01:34.905Z,56.25
2023-05-04T07:02:34.970Z,61.88
2023-05-04T07:03:34.923Z,61.88
2023-05-04T07:04:34.837Z,61.88
2023-05-04T07:05:34.836Z,61.88
2023-05-04T07:06:34.863Z,61.88
2023-05-04T07:07:34.816Z,61.88
2023-05-04T07:08:34.855Z,61.88
2023-05-04T07:09:34.801Z,61.88
2023-05-04T07:10:34.778Z,67.50
2023-05-04T07:11:34.769Z,67.50
2023-05-04T07:12:34.794Z,67.50
2023-05-04T07:13:34.751Z,67.50
2023-05-04T07:14:34.770Z,67.50
2023-05-04T07:15:34.753Z,67.50
2023-05-04T07:16:34.716Z,67.50
2023-05-04T07:17:34.726Z,73.12
2023-05-04T07:18:34.705Z,73.12
2023-05-04T07:19:34.734Z,73.12
2023-05-04T07:20:34.681Z,73.12
2023-05-04T07:21:34.660Z,73.12
2023-05-04T07:22:34.669Z,73.12
2023-05-04T07:23:34.671Z,73.12
2023-05-04T07:24:34.632Z,73.12
2023-05-04T07:25:35.189Z,73.12
2023-05-04T07:26:34.612Z,78.75
2023-05-04T07:27:34.675Z,78.75
2023-05-04T07:28:34.593Z,78.75
2023-05-04T07:29:34.573Z,78.75
2023-05-04T07:30:34.604Z,78.75
2023-05-04T07:31:34.627Z,78.75
2023-05-04T07:32:34.579Z,78.75
2023-05-04T07:33:34.555Z,78.75
2023-05-04T07:34:45.034Z,78.75
2023-05-04T07:35:34.535Z,78.75
2023-05-04T07:36:34.678Z,78.75
2023-05-04T07:37:34.483Z,78.75
2023-05-04T07:38:34.487Z,84.38
2023-05-04T07:39:34.458Z,84.38
2023-05-04T07:40:34.446Z,84.38
2023-05-04T07:41:34.450Z,84.38
2023-05-04T07:42:34.459Z,84.38
2023-05-04T07:43:34.428Z,84.38
2023-05-04T07:44:35.309Z,84.38
2023-05-04T07:45:34.396Z,84.38
2023-05-04T07:46:34.594Z,84.38
2023-05-04T07:47:34.420Z,84.38
2023-05-04T07:48:34.368Z,84.38
2023-05-04T07:49:34.350Z,84.38
2023-05-04T07:50:34.405Z,84.38
2023-05-04T07:51:34.338Z,84.38
2023-05-04T07:52:34.345Z,90.00
2023-05-04T07:53:34.329Z,84.38
2023-05-04T07:54:34.300Z,84.38
2023-05-04T07:55:34.321Z,84.38
2023-05-04T07:56:34.273Z,90.00
2023-05-04T07:57:34.262Z,90.00
2023-05-04T07:58:34.334Z,90.00
2023-05-04T07:59:34.252Z,95.62
2023-05-04T08:00:34.237Z,90.00
2023-05-04T08:01:34.304Z,90.00
2023-05-04T08:02:34.335Z,90.00
2023-05-04T08:03:34.220Z,95.62
2023-05-04T08:04:34.190Z,95.62
2023-05-04T08:05:34.186Z,95.62
2023-05-04T08:06:34.190Z,95.62
2023-05-04T08:07:34.165Z,95.62
2023-05-04T08:08:34.286Z,95.62
2023-05-04T08:09:34.149Z,101.25
2023-05-04T08:10:34.145Z,101.25
2023-05-04T08:11:34.118Z,95.62
2023-05-04T08:12:34.129Z,90.00
2023-05-04T08:13:34.085Z,84.38
2023-05-04T08:14:35.304Z,95.62
2023-05-04T08:15:34.072Z,90.00
2023-05-04T08:16:34.058Z,90.00
2023-05-04T08:17:34.081Z,101.25
2023-05-04T08:18:34.062Z,95.62
2023-05-04T08:19:34.050Z,95.62
2023-05-04T08:20:34.026Z,95.62
2023-05-04T08:21:34.016Z,95.62
2023-05-04T08:22:34.014Z,95.62
2023-05-04T08:23:33.986Z,95.62
2023-05-04T08:24:33.996Z,95.62
2023-05-04T08:25:33.989Z,95.62
2023-05-04T08:26:33.951Z,95.62
2023-05-04T08:27:33.952Z,101.25
2023-05-04T08:28:33.940Z,101.25
2023-05-04T08:29:33.961Z,101.25
2023-05-04T08:30:33.937Z,101.25
2023-05-04T08:31:33.908Z,101.25
2023-05-04T08:32:33.958Z,101.25
2023-05-04T08:33:33.895Z,101.25
2023-05-04T08:34:33.863Z,95.62
2023-05-04T08:35:33.903Z,101.25
2023-05-04T08:36:33.858Z,101.25
2023-05-04T08:37:33.834Z,106.88
2023-05-04T08:38:33.821Z,101.25
2023-05-04T08:39:33.827Z,101.25
2023-05-04T08:40:33.834Z,101.25
2023-05-04T08:41:33.825Z,106.88
2023-05-04T08:42:33.818Z,106.88
2023-05-04T08:43:33.766Z,106.88
2023-05-04T08:44:33.774Z,112.50
2023-05-04T08:45:33.831Z,112.50
2023-05-04T08:46:33.810Z,112.50
2023-05-04T08:47:33.770Z,118.12
2023-05-04T08:48:33.746Z,118.12
2023-05-04T08:49:33.720Z,112.50
2023-05-04T08:50:33.697Z,118.12
2023-05-04T08:51:33.704Z,112.50
2023-05-04T08:52:33.688Z,118.12
2023-05-04T08:53:33.662Z,118.12
2023-05-04T08:54:33.691Z,123.75
2023-05-04T08:55:33.654Z,123.75
2023-05-04T08:56:33.762Z,123.75
2023-05-04T08:57:33.625Z,129.38
2023-05-04T08:58:33.609Z,129.38
2023-05-04T08:59:33.617Z,135.00
2023-05-04T09:00:33.703Z,129.38
2023-05-04T09:01:33.642Z,135.00
2023-05-04T09:02:33.571Z,135.00
2023-05-04T09:03:33.632Z,135.00
2023-05-04T09:04:33.548Z,135.00
2023-05-04T09:05:33.547Z,135.00
2023-05-04T09:06:33.546Z,118.12
2023-05-04T09:07:33.504Z,123.75
2023-05-04T09:08:33.526Z,129.38
2023-05-04T09:09:33.494Z,118.12
2023-05-04T09:10:33.492Z,129.38
2023-05-04T09:11:33.502Z,129.38
2023-05-04T09:12:33.569Z,140.62
2023-05-04T09:13:33.441Z,123.75
2023-05-04T09:14:33.492Z,146.25
2023-05-04T09:15:33.429Z,146.25
2023-05-04T09:16:33.484Z,146.25
2023-05-04T09:17:34.246Z,146.25
2023-05-04T09:18:33.557Z,146.25
2023-05-04T09:19:33.406Z,151.88
2023-05-04T09:20:33.381Z,146.25
2023-05-04T09:21:33.366Z,129.38
2023-05-04T09:22:33.363Z,135.00
2023-05-04T09:23:33.447Z,140.62
2023-05-04T09:24:33.357Z,146.25
2023-05-04T09:25:33.333Z,140.62
2023-05-04T09:26:33.331Z,135.00
2023-05-04T09:27:33.379Z,129.38
2023-05-04T09:28:33.333Z,129.38
2023-05-04T09:29:33.254Z,135.00
2023-05-04T09:30:33.259Z,135.00
2023-05-04T09:31:33.376Z,140.62
2023-05-04T09:32:33.296Z,140.62
2023-05-04T09:33:33.264Z,135.00
2023-05-04T09:34:33.223Z,135.00
2023-05-04T09:35:34.360Z,135.00
2023-05-04T09:36:33.201Z,140.62
2023-05-04T09:37:33.210Z,140.62
2023-05-04T09:38:33.210Z,129.38
2023-05-04T09:39:33.222Z,129.38
2023-05-04T09:40:33.156Z,135.00
2023-05-04T09:41:33.160Z,135.00
2023-05-04T09:42:33.132Z,135.00
2023-05-04T09:43:33.120Z,135.00
2023-05-04T09:44:33.113Z,135.00
2023-05-04T09:45:33.117Z,129.38
2023-05-04T09:46:34.566Z,135.00
2023-05-04T09:47:33.129Z,135.00
2023-05-04T09:48:33.082Z,140.62
2023-05-04T09:49:33.060Z,135.00
2023-05-04T09:50:33.048Z,135.00
2023-05-04T09:51:33.043Z,135.00
2023-05-04T09:52:33.070Z,140.62
2023-05-04T09:53:33.130Z,140.62
2023-05-04T09:54:33.008Z,140.62
2023-05-04T09:55:33.017Z,135.00
2023-05-04T09:56:32.982Z,140.62
2023-05-04T09:57:32.995Z,140.62
2023-05-04T09:58:32.975Z,140.62
2023-05-04T09:59:32.943Z,140.62
2023-05-04T10:00:32.959Z,140.62
2023-05-04T10:01:32.983Z,140.62
2023-05-04T10:02:32.994Z,140.62
2023-05-04T10:03:32.915Z,146.25
2023-05-04T10:04:32.897Z,140.62
2023-05-04T10:05:32.907Z,151.88
2023-05-04T10:06:32.867Z,157.50
2023-05-04T10:07:32.894Z,163.12
2023-05-04T10:08:32.872Z,163.12
2023-05-04T10:09:32.909Z,163.12
2023-05-04T10:10:32.825Z,163.12
2023-05-04T10:11:32.812Z,163.12
2023-05-04T10:12:32.840Z,168.75
2023-05-04T10:13:32.807Z,151.88
2023-05-04T10:14:32.792Z,146.25
2023-05-04T10:15:32.776Z,151.88
2023-05-04T10:16:32.821Z,157.50
2023-05-04T10:17:32.826Z,168.75
2023-05-04T10:18:32.743Z,168.75
2023-05-04T10:19:32.725Z,163.12
2023-05-04T10:20:32.721Z,168.75
2023-05-04T10:21:32.718Z,157.50
2023-05-04T10:22:32.685Z,157.50
2023-05-04T10:23:32.721Z,163.12
2023-05-04T10:24:32.673Z,168.75
2023-05-04T10:25:32.672Z,174.38
2023-05-04T10:26:32.670Z,174.38
2023-05-04T10:27:32.637Z,174.38
2023-05-04T10:28:32.632Z,168.75
2023-05-04T10:29:32.629Z,157.50
2023-05-04T10:30:32.617Z,168.75
2023-05-04T10:31:32.652Z,168.75
2023-05-04T10:32:32.621Z,180.00
2023-05-04T10:33:32.564Z,168.75
2023-05-04T10:34:32.587Z,163.12
2023-05-04T10:35:32.556Z,168.75
2023-05-04T10:36:32.569Z,168.75
2023-05-04T10:37:32.625Z,163.12
2023-05-04T10:38:32.637Z,163.12
2023-05-04T10:39:32.540Z,163.12
2023-05-04T10:40:32.499Z,168.75
2023-05-04T10:41:32.487Z,168.75
2023-05-04T10:42:32.470Z,168.75
2023-05-04T10:43:32.478Z,168.75
2023-05-04T10:44:32.484Z,168.75
2023-05-04T10:45:32.471Z,168.75
2023-05-04T10:46:32.444Z,174.38
2023-05-04T10:47:32.562Z,174.38
2023-05-04T10:48:32.406Z,174.38
2023-05-04T10:49:32.405Z,168.75
2023-05-04T10:50:32.401Z,163.12
2023-05-04T10:51:42.326Z,168.75
2023-05-04T10:52:32.355Z,168.75
2023-05-04T10:53:32.357Z,168.75
2023-05-04T10:54:32.354Z,163.12
2023-05-04T10:55:32.336Z,163.12
2023-05-04T10:56:32.335Z,157.50
2023-05-04T10:57:32.326Z,163.12
2023-05-04T10:58:32.292Z,163.12
2023-05-04T10:59:32.304Z,163.12
2023-05-04T11:00:32.282Z,163.12
2023-05-04T11:01:32.398Z,163.12
2023-05-04T11:02:33.319Z,157.50
2023-05-04T11:03:32.308Z,157.50
2023-05-04T11:04:32.236Z,151.88
2023-05-04T11:05:32.353Z,157.50
2023-05-04T11:06:32.208Z,157.50
2023-05-04T11:07:32.200Z,151.88
2023-05-04T11:08:32.209Z,157.50
2023-05-04T11:09:32.221Z,163.12
2023-05-04T11:10:32.169Z,157.50
2023-05-04T11:11:32.160Z,157.50
2023-05-04T11:12:32.214Z,157.50
2023-05-04T11:13:32.141Z,163.12
2023-05-04T11:14:32.433Z,163.12
2023-05-04T11:15:32.127Z,168.75
2023-05-04T11:16:32.138Z,168.75
2023-05-04T11:17:32.150Z,174.38
2023-05-04T11:18:32.111Z,168.75
2023-05-04T11:19:32.097Z,174.38
2023-05-04T11:20:32.062Z,180.00
2023-05-04T11:21:32.089Z,180.00
2023-05-04T11:22:32.050Z,174.38
2023-05-04T11:23:32.028Z,174.38
2023-05-04T11:24:32.012Z,174.38
2023-05-04T11:25:32.049Z,168.75
2023-05-04T11:26:32.003Z,168.75
2023-05-04T11:27:32.004Z,168.75
2023-05-04T11:28:32.144Z,168.75
2023-05-04T11:29:31.995Z,163.12
2023-05-04T11:30:31.971Z,168.75
2023-05-04T11:31:32.006Z,168.75
2023-05-04T11:32:31.980Z,174.38
2023-05-04T11:33:31.922Z,168.75
2023-05-04T11:34:31.897Z,168.75
2023-05-04T11:35:31.945Z,174.38
2023-05-04T11:36:31.911Z,174.38
2023-05-04T11:37:31.899Z,180.00
2023-05-04T11:38:31.875Z,185.62
2023-05-04T11:39:31.864Z,196.88
2023-05-04T11:40:31.870Z,196.88
2023-05-04T11:41:31.841Z,202.50
2023-05-04T11:42:31.822Z,208.12
2023-05-04T11:43:31.829Z,208.12
2023-05-04T11:44:31.786Z,208.12
2023-05-04T11:45:31.810Z,213.75
2023-05-04T11:46:31.844Z,230.62
2023-05-04T11:47:31.845Z,225.00
2023-05-04T11:48:31.814Z,202.50
2023-05-04T11:49:31.766Z,202.50
2023-05-04T11:50:31.794Z,202.50
2023-05-04T11:51:31.736Z,208.12
2023-05-04T11:52:31.724Z,202.50
2023-05-04T11:53:31.715Z,213.75
2023-05-04T11:54:31.703Z,208.12
2023-05-04T11:55:31.709Z,202.50
2023-05-04T11:56:31.670Z,196.88
2023-05-04T11:57:31.696Z,191.25
2023-05-04T11:58:31.658Z,196.88
2023-05-04T11:59:31.660Z,208.12
2023-05-04T12:00:31.641Z,208.12
2023-05-04T12:01:31.629Z,202.50
2023-05-04T12:02:31.671Z,208.12
2023-05-04T12:03:48.011Z,213.75
2023-05-04T12:04:31.602Z,219.38
2023-05-04T12:05:31.619Z,219.38
2023-05-04T12:06:31.571Z,230.62
2023-05-04T12:07:31.558Z,225.00
2023-05-04T12:08:31.571Z,225.00
2023-05-04T12:09:31.546Z,225.00
2023-05-04T12:10:31.524Z,230.62
2023-05-04T12:11:31.514Z,247.50
2023-05-04T12:12:33.323Z,253.12
2023-05-04T12:13:31.525Z,253.12
2023-05-04T12:14:31.477Z,264.38
2023-05-04T12:15:31.484Z,258.75
2023-05-04T12:16:31.515Z,258.75
2023-05-04T12:17:31.460Z,258.75
2023-05-04T12:18:31.486Z,258.75
2023-05-04T12:19:31.468Z,258.75
2023-05-04T12:20:31.493Z,258.75
2023-05-04T12:21:31.409Z,258.75
2023-05-04T12:22:31.396Z,253.12
2023-05-04T12:23:31.400Z,258.75
2023-05-04T12:24:31.392Z,258.75
2023-05-04T12:25:31.414Z,258.75
2023-05-04T12:26:31.364Z,247.50
2023-05-04T12:27:31.353Z,236.25
2023-05-04T12:28:31.381Z,236.25
2023-05-04T12:29:31.317Z,236.25
2023-05-04T12:30:31.303Z,247.50
2023-05-04T12:31:31.323Z,241.88
2023-05-04T12:32:31.307Z,247.50
2023-05-04T12:33:31.274Z,247.50
2023-05-04T12:34:31.266Z,253.12
2023-05-04T12:35:31.258Z,275.62
2023-05-04T12:36:31.282Z,286.88
2023-05-04T12:37:31.230Z,292.50
2023-05-04T12:38:31.217Z,303.75
2023-05-04T12:39:31.228Z,303.75
2023-05-04T12:40:31.207Z,309.38
2023-05-04T12:41:31.202Z,303.75
2023-05-04T12:42:31.195Z,292.50
2023-05-04T12:43:31.186Z,303.75
2023-05-04T12:44:31.150Z,331.88
2023-05-04T12:45:31.148Z,298.12
2023-05-04T12:46:31.164Z,320.62
2023-05-04T12:47:31.166Z,326.25
2023-05-04T12:48:31.142Z,326.25
2023-05-04T12:49:31.453Z,320.62
2023-05-04T12:50:31.103Z,348.75
2023-05-04T12:51:31.085Z,343.12
2023-05-04T12:52:31.087Z,343.12
2023-05-04T12:53:31.088Z,348.75
2023-05-04T12:54:31.057Z,360.00
2023-05-04T12:55:31.042Z,360.00
2023-05-04T12:56:31.041Z,365.62
2023-05-04T12:57:31.047Z,393.75
2023-05-04T12:58:31.052Z,393.75
2023-05-04T12:59:31.007Z,365.62
2023-05-04T13:00:31.019Z,354.38
2023-05-04T13:01:31.081Z,393.75
2023-05-04T13:02:31.085Z,433.12
2023-05-04T13:03:31.046Z,427.50
2023-05-04T13:04:30.965Z,433.12
2023-05-04T13:05:30.942Z,405.00
2023-05-04T13:06:30.931Z,365.62
2023-05-04T13:07:30.964Z,348.75
2023-05-04T13:08:30.934Z,343.12
2023-05-04T13:09:30.909Z,360.00
2023-05-04T13:10:30.897Z,354.38
2023-05-04T13:11:30.893Z,348.75
2023-05-04T13:12:30.996Z,360.00
2023-05-04T13:13:30.854Z,354.38
2023-05-04T13:14:30.936Z,354.38
2023-05-04T13:15:30.883Z,365.62
2023-05-04T13:16:30.938Z,393.75
2023-05-04T13:17:30.840Z,405.00
2023-05-04T13:18:30.830Z,421.88
2023-05-04T13:19:30.813Z,427.50
2023-05-04T13:20:30.819Z,427.50
2023-05-04T13:21:30.827Z,421.88
2023-05-04T13:22:30.761Z,399.38
2023-05-04T13:23:30.764Z,405.00
2023-05-04T13:24:30.764Z,438.75
2023-05-04T13:25:30.748Z,416.25
2023-05-04T13:26:30.789Z,410.62
2023-05-04T13:27:30.745Z,410.62
2023-05-04T13:28:30.694Z,421.88
2023-05-04T13:29:30.700Z,427.50
2023-05-04T13:30:30.690Z,393.75
2023-05-04T13:31:30.772Z,416.25
2023-05-04T13:32:30.727Z,421.88
2023-05-04T13:33:31.022Z,399.38
2023-05-04T13:34:30.661Z,410.62
2023-05-04T13:35:30.636Z,466.88
2023-05-04T13:36:30.638Z,450.00
2023-05-04T13:37:30.623Z,416.25
2023-05-04T13:38:30.661Z,421.88
2023-05-04T13:39:30.602Z,416.25
2023-05-04T13:40:30.644Z,427.50
2023-05-04T13:41:30.572Z,388.12
2023-05-04T13:42:30.558Z,348.75
2023-05-04T13:43:30.536Z,343.12
2023-05-04T13:44:30.527Z,371.25
2023-05-04T13:45:30.817Z,376.88
2023-05-04T13:46:30.520Z,371.25
2023-05-04T13:47:30.548Z,354.38
2023-05-04T13:48:30.506Z,393.75
2023-05-04T13:49:30.493Z,427.50
2023-05-04T13:50:30.468Z,427.50
2023-05-04T13:51:30.470Z,393.75
2023-05-04T13:52:30.461Z,410.62
2023-05-04T13:53:30.437Z,393.75
2023-05-04T13:54:30.444Z,399.38
2023-05-04T13:55:30.420Z,483.75
2023-05-04T13:56:30.397Z,500.62
2023-05-04T13:57:30.424Z,472.50
2023-05-04T13:58:30.380Z,489.38
2023-05-04T13:59:30.393Z,455.62
2023-05-04T14:00:30.376Z,478.12
2023-05-04T14:01:30.486Z,478.12
2023-05-04T14:02:30.424Z,495.00
2023-05-04T14:03:30.349Z,545.62
2023-05-04T14:04:30.336Z,556.88
2023-05-04T14:05:30.315Z,562.50
2023-05-04T14:06:30.304Z,568.12
2023-05-04T14:07:30.310Z,545.62
2023-05-04T14:08:30.273Z,556.88
2023-05-04T14:09:30.275Z,573.75
2023-05-04T14:10:30.276Z,601.88
2023-05-04T14:11:30.292Z,630.00
2023-05-04T14:12:30.294Z,703.12
2023-05-04T14:13:30.254Z,714.38
2023-05-04T14:14:30.206Z,736.88
2023-05-04T14:15:30.240Z,753.75
2023-05-04T14:16:30.300Z,708.75
2023-05-04T14:17:30.167Z,714.38
2023-05-04T14:18:30.237Z,753.75
2023-05-04T14:19:30.167Z,725.62
2023-05-04T14:20:30.169Z,720.00
2023-05-04T14:21:30.147Z,658.12
2023-05-04T14:22:30.127Z,697.50
2023-05-04T14:23:30.149Z,675.00
2023-05-04T14:24:30.157Z,669.38
2023-05-04T14:25:30.143Z,613.12
2023-05-04T14:26:30.078Z,556.88
2023-05-04T14:27:30.083Z,478.12
2023-05-04T14:28:30.065Z,551.25
2023-05-04T14:29:30.060Z,545.62
2023-05-04T14:30:30.055Z,590.62
2023-05-04T14:31:30.066Z,556.88
2023-05-04T14:32:30.111Z,489.38
2023-05-04T14:33:30.109Z,500.62
2023-05-04T14:34:31.289Z,506.25
2023-05-04T14:35:30.000Z,511.88
2023-05-04T14:36:29.970Z,540.00
2023-05-04T14:37:29.987Z,658.12
2023-05-04T14:38:30.005Z,646.88
2023-05-04T14:39:30.043Z,697.50
2023-05-04T14:40:29.945Z,748.12
2023-05-04T14:41:31.178Z,714.38
2023-05-04T14:42:29.928Z,686.25
2023-05-04T14:43:29.930Z,652.50
2023-05-04T14:44:29.910Z,511.88
2023-05-04T14:45:30.042Z,416.25
2023-05-04T14:46:30.016Z,438.75
2023-05-04T14:47:29.962Z,450.00
2023-05-04T14:48:29.857Z,483.75
2023-05-04T14:50:29.856Z,388.12
2023-05-04T14:51:29.835Z,315.00
2023-05-04T14:52:29.828Z,315.00
2023-05-04T14:53:29.803Z,326.25
2023-05-04T14:54:29.810Z,315.00
2023-05-04T14:55:29.798Z,337.50
2023-05-04T14:56:29.801Z,365.62
2023-05-04T14:57:29.775Z,466.88
2023-05-04T14:58:29.798Z,551.25
2023-05-04T14:59:29.775Z,596.25
2023-05-04T15:00:29.753Z,613.12
2023-05-04T15:01:29.787Z,551.25
2023-05-04T15:02:29.796Z,461.25
2023-05-04T15:03:29.792Z,371.25
2023-05-04T15:04:29.720Z,365.62
2023-05-04T15:05:29.684Z,365.62
2023-05-04T15:06:29.714Z,343.12
2023-05-04T15:07:29.673Z,360.00
2023-05-04T15:08:29.660Z,421.88
2023-05-04T15:09:29.645Z,405.00
2023-05-04T15:10:29.646Z,382.50
2023-05-04T15:11:29.626Z,348.75
2023-05-04T15:12:29.663Z,354.38
2023-05-04T15:13:29.639Z,331.88
2023-05-04T15:14:29.590Z,343.12
2023-05-04T15:15:29.585Z,399.38
2023-05-04T15:16:29.701Z,410.62
2023-05-04T15:17:29.616Z,343.12
2023-05-04T15:18:29.550Z,365.62
2023-05-04T15:19:29.539Z,495.00
2023-05-04T15:20:29.566Z,523.12
2023-05-04T15:21:29.525Z,523.12
2023-05-04T15:22:29.523Z,517.50
2023-05-04T15:23:29.505Z,433.12
2023-05-04T15:24:29.513Z,517.50
2023-05-04T15:25:29.477Z,466.88
2023-05-04T15:26:29.480Z,303.75
2023-05-04T15:27:29.469Z,382.50
2023-05-04T15:28:29.435Z,371.25
2023-05-04T15:29:29.461Z,421.88
2023-05-04T15:30:29.435Z,348.75
2023-05-04T15:31:29.448Z,292.50
2023-05-04T15:32:29.473Z,315.00
2023-05-04T15:33:29.396Z,303.75
2023-05-04T15:34:29.401Z,376.88
2023-05-04T15:35:29.378Z,326.25
2023-05-04T15:36:29.352Z,275.62
2023-05-04T15:37:29.357Z,365.62
2023-05-04T15:38:29.549Z,247.50
2023-05-04T15:39:29.321Z,219.38
2023-05-04T15:40:29.353Z,230.62
2023-05-04T15:41:29.293Z,202.50
2023-05-04T15:42:29.370Z,309.38
2023-05-04T15:43:29.289Z,360.00
2023-05-04T15:44:29.289Z,410.62
2023-05-04T15:45:29.263Z,601.88
2023-05-04T15:46:29.409Z,708.75
2023-05-04T15:47:29.267Z,466.88
2023-05-04T15:48:29.249Z,562.50
2023-05-04T15:49:29.235Z,506.25
2023-05-04T15:50:30.095Z,421.88
2023-05-04T15:51:29.232Z,478.12
2023-05-04T15:52:29.183Z,461.25
2023-05-04T15:53:29.200Z,421.88
2023-05-04T15:54:29.177Z,433.12
2023-05-04T15:55:29.193Z,472.50
2023-05-04T15:56:29.151Z,444.38
2023-05-04T15:57:29.173Z,495.00
2023-05-04T15:58:29.127Z,444.38
2023-05-04T15:59:29.107Z,298.12
2023-05-04T16:00:29.107Z,337.50
2023-05-04T16:01:29.122Z,388.12
2023-05-04T16:02:29.112Z,444.38
2023-05-04T16:03:29.096Z,393.75
2023-05-04T16:04:29.061Z,376.88
2023-05-04T16:05:29.045Z,331.88
2023-05-04T16:06:29.032Z,303.75
2023-05-04T16:07:29.042Z,298.12
2023-05-04T16:08:29.484Z,264.38
2023-05-04T16:09:29.014Z,281.25
2023-05-04T16:10:28.993Z,292.50
2023-05-04T16:11:28.973Z,337.50
2023-05-04T16:12:29.017Z,433.12
2023-05-04T16:13:29.515Z,438.75
2023-05-04T16:14:28.958Z,405.00
2023-05-04T16:15:28.945Z,354.38
2023-05-04T16:16:28.933Z,315.00
2023-05-04T16:17:29.036Z,303.75
2023-05-04T16:18:28.960Z,320.62
2023-05-04T16:19:28.893Z,281.25
2023-05-04T16:20:28.897Z,275.62
2023-05-04T16:21:28.879Z,270.00
2023-05-04T16:22:28.892Z,303.75
2023-05-04T16:23:28.874Z,292.50
2023-05-04T16:24:28.856Z,281.25
2023-05-04T16:25:28.862Z,309.38
2023-05-04T16:26:28.840Z,303.75
2023-05-04T16:27:28.886Z,281.25
2023-05-04T16:28:28.825Z,219.38
2023-05-04T16:29:28.839Z,191.25
2023-05-04T16:30:28.805Z,146.25
2023-05-04T16:31:28.967Z,140.62
2023-05-04T16:32:28.879Z,168.75
2023-05-04T16:33:28.772Z,174.38
2023-05-04T16:34:28.768Z,185.62
2023-05-04T16:35:28.734Z,185.62
2023-05-04T16:36:28.740Z,174.38
2023-05-04T16:37:28.715Z,157.50
2023-05-04T16:38:28.707Z,123.75